Nathaniel B. Palmer — WBP3210 — position and weather

sailwx.info

Track history (hours):
 
Tides and Currents Weather Stations Pressure Air Temp Water Temp Dewpoint Dewpoint Depression Visibility Wind Speed Wind Dir Waves Ship Positions

Oceanographic research ship Nathaniel B. Palmer (USA)

Contact: Ethan Norris, ethan.norris.contractor@usap.gov

Detailed information on ship capabilities available from University of Delaware's Ocean Information Center and ARCUS's ALIAS (Arctic Logistics Information and Support) project.

Owner: OFFSHORE SERVICE VESSELS, GALLIANO, LA. More information available from US FCC via Universal Licensing System and Coast Guard Vessel Documentation Center.

Last reported at 2015-Jul-06 04:00 UTC. Time now 2015-Jul-06 04:53 UTC.
Position S 53°00' W 070°48'.

Type: Other ship. MMSI: 366610000.

Wind from 260 at 10 knots

Barometer 1004.4 mb
Air temperature 1.4 ° C
Water temperature 11.9 ° C

Date/timePositionNaut miles runAvg speedWind from/ knotsBaromVisibWave heightAir tempDewpointWater temp
2015-Jul-06 04:00S 53°00' W 070°48'0 0.0 260 / 101004.4 1.4 11.9
2015-Jul-06 02:00S 53°00' W 070°48'0 0.0 310 / 111003.5 1.9 11.9
2015-Jul-06 00:00S 53°00' W 070°48'0 0.0 010 / 131002.2 2.6 11.9
2015-Jul-05 22:00S 53°00' W 070°48'0 0.0 300 / 121000.8 3.0 11.9
2015-Jul-05 20:00S 53°00' W 070°48'0 0.0 300 / 13999.8 3.3 11.9
2015-Jul-05 18:00S 53°00' W 070°48'0 0.0 320 / 13998.8 3.2 11.9
2015-Jul-05 16:00S 53°00' W 070°48'0 0.0 300 / 12998.9 2.3 11.9
2015-Jul-05 12:00S 53°00' W 070°48'0 0.0 020 / 16998.1 1.7 11.9
2015-Jul-05 10:00S 53°00' W 070°48'0 0.0 310 / 18998.0 2.0 11.9
2015-Jul-05 08:00S 53°00' W 070°48'0 0.0 230 / 18998.2 1.9 11.9
2015-Jul-05 04:00S 53°00' W 070°48'0 0.0 230 / 81000.2 3.0 11.9
2015-Jul-05 02:00S 53°00' W 070°48'0 0.0 310 / 111001.3 3.1 11.9
2015-Jul-05 00:00S 53°00' W 070°48'0 0.0 010 / 131002.1 3.5 11.9
2015-Jul-04 22:00S 53°00' W 070°48'0 0.0 120 / 151002.6 3.2 11.9
2015-Jul-04 20:00S 53°00' W 070°48'0 0.0 270 / 31003.0 3.6 11.9
2015-Jul-04 18:00S 53°00' W 070°48'0 0.0 300 / 51003.6 3.4 11.9
2015-Jul-04 16:00S 53°00' W 070°48'0 0.0 180 / 51004.4 4.0 11.9
2015-Jul-04 14:00S 53°00' W 070°48'0 0.0 220 / 31004.9 3.4 11.9
2015-Jul-04 12:00S 53°00' W 070°48'0 0.0 270 / 51005.2 2.7 11.9
2015-Jul-04 10:00S 53°00' W 070°48'0 0.0 350 / 31005.5 3.4 11.9
2015-Jul-04 08:00S 53°00' W 070°48'0 0.0 350 / 81005.9 3.7 11.9
2015-Jul-04 04:00S 53°00' W 070°48'0 0.0 040 / 111007.3 4.7 11.9
2015-Jul-04 02:00S 53°00' W 070°48'0 0.0 280 / 71008.6 5.1 11.9
2015-Jul-04 00:00S 53°00' W 070°48'0 0.0 280 / 91009.3 5.2 11.9
2015-Jul-03 20:00S 53°00' W 070°48'0 0.0 240 / 51009.9 5.6 11.9
2015-Jul-03 18:00S 53°00' W 070°48'0 0.0 030 / 81010.6 6.2 11.9
2015-Jul-03 16:00S 53°00' W 070°48'0 0.0 050 / 101011.3 5.3 11.9
2015-Jul-03 14:00S 53°00' W 070°48'0 0.0 250 / 161011.0 5.2 11.9
2015-Jul-03 12:00S 53°00' W 070°48'0 0.0 120 / 51011.7 5.0 11.9
2015-Jul-03 10:00S 53°00' W 070°48'0 0.0 280 / 41011.6 5.0 11.9
2015-Jul-03 08:00S 53°00' W 070°48'0 0.0 180 / 41011.4 5.1 11.9
2015-Jul-03 00:00S 53°00' W 070°48'0 0.0 170 / 171009.0 5.1 11.9
2015-Jul-02 22:00S 53°00' W 070°48'0 0.0 120 / 231007.9 4.7 11.9
2015-Jul-02 20:00S 53°00' W 070°48'0 0.0 210 / 301005.8 5.0 11.9
2015-Jul-02 18:00S 53°00' W 070°48'0 0.0 150 / 281005.9 5.0 11.9
2015-Jul-02 16:00S 53°00' W 070°48'0 0.0 190 / 241007.2 5.2 11.9
2015-Jul-02 14:00S 53°00' W 070°48'0 0.0 230 / 181008.1 5.2 11.9
2015-Jul-02 12:00S 53°00' W 070°48'0 0.0 230 / 21008.2 3.6 11.9
2015-Jul-02 10:00S 53°00' W 070°48'0 0.0 140 / 211007.8 3.1 11.9
2015-Jul-02 08:00S 53°00' W 070°48'0 0.0 240 / 191008.9 3.8 11.9
2015-Jul-02 04:00S 53°00' W 070°48'0 0.0 220 / 41011.5 4.0 11.9
2015-Jul-02 00:00S 53°00' W 070°48'0 0.0 230 / 61013.4 3.5 11.9
2015-Jul-01 22:00S 53°00' W 070°48'0 0.0 130 / 11013.8 3.5 11.9
2015-Jul-01 20:00S 53°00' W 070°48'0 0.0 240 / 71013.6 3.4 11.9
2015-Jul-01 18:00S 53°00' W 070°48'0 0.0 150 / 71013.5 3.7 11.9
2015-Jul-01 16:00S 53°00' W 070°48'0 0.0 260 / 71014.4 3.3 11.9
2015-Jul-01 14:00S 53°00' W 070°48'0 0.0 280 / 41014.2 2.3 11.9
2015-Jul-01 12:00S 53°00' W 070°48'0 0.0 140 / 81013.3 1.9 11.9
2015-Jul-01 10:00S 53°00' W 070°48'0 0.0 240 / 121012.3 3.4 11.9
2015-Jul-01 08:00S 53°00' W 070°48'0 0.0 180 / 111011.6 3.1 11.9
2015-Jul-01 04:00S 53°00' W 070°48'0 0.0 100 / 91010.2 2.8 11.9
2015-Jul-01 02:00S 53°00' W 070°48'0 0.0 100 / 61010.3 1.4 11.9
2015-Jul-01 00:00S 53°00' W 070°48'0 0.0 080 / 121009.5 3.0 11.9
2015-Jun-30 22:00S 53°00' W 070°48'0 0.0 090 / 221007.1 3.1 11.9
2015-Jun-30 20:00S 53°00' W 070°48'0 0.0 150 / 171005.1 2.7 11.9
2015-Jun-30 18:00S 53°00' W 070°48'0 0.0 170 / 141004.6 2.8 11.9
2015-Jun-30 16:00S 53°00' W 070°48'0 0.0 210 / 131004.8 2.7 11.9
2015-Jun-30 12:00S 53°00' W 070°48'0 0.0 120 / 181002.2 1.9 11.9
2015-Jun-30 10:00S 53°00' W 070°48'0 0.0 230 / 151001.8 1.9 11.9
2015-Jun-30 08:00S 53°00' W 070°48'0 0.0 150 / 26999.9 2.2 11.9
2015-Jun-30 04:00S 53°00' W 070°48'0 0.0 120 / 241000.1 1.6 11.9
2015-Jun-30 02:00S 53°00' W 070°48'0 0.0 110 / 221000.7 1.5 11.9
2015-Jun-30 00:00S 53°00' W 070°48'0 0.0 220 / 111001.8 0.8 11.9
2015-Jun-29 22:00S 53°00' W 070°48'0 0.0 100 / 14999.9 1.7 11.9
2015-Jun-29 20:00S 53°00' W 070°48'0 0.0 120 / 19997.7 2.1 11.9
2015-Jun-29 18:00S 53°00' W 070°48'0 0.0 160 / 14997.5 2.3 11.9
2015-Jun-29 16:00S 53°00' W 070°48'0 0.0 020 / 21996.2 1.9 11.9
2015-Jun-29 14:00S 53°00' W 070°48'0 0.0 190 / 15995.7 0.9 11.9
2015-Jun-29 12:00S 53°00' W 070°48'0 0.0 130 / 15994.1 1.5 11.9
2015-Jun-29 10:00S 53°00' W 070°48'0 0.0 230 / 20990.5 1.5 11.9
2015-Jun-29 08:00S 53°00' W 070°48'0 0.0 150 / 14989.9 1.8 11.9
2015-Jun-29 04:00S 53°00' W 070°48'0 0.0 120 / 15986.4 1.6 11.9
2015-Jun-29 02:00S 53°00' W 070°48'0 0.0 360 / 23984.4 2.0 11.9
2015-Jun-29 00:00S 53°00' W 070°48'0 0.0 210 / 20983.9 2.3 11.9
2015-Jun-28 22:00S 53°00' W 070°48'0 0.0 100 / 24982.4 2.3 11.9
2015-Jun-28 20:00S 53°00' W 070°48'0 0.0 210 / 19982.0 2.8 11.9
2015-Jun-28 18:00S 53°00' W 070°48'0 0.0 040 / 29980.7 3.0 11.9
2015-Jun-28 16:00S 53°00' W 070°48'0 0.0 140 / 25981.3 2.7 11.9
2015-Jun-28 12:00S 53°00' W 070°48'0 0.0 170 / 10981.4 1.5 11.9
2015-Jun-28 08:00S 53°00' W 070°48'0 0.0 180 / 13978.2 4.0 11.9
2015-Jun-28 04:00S 53°00' W 070°48'0 0.0 130 / 10978.1 5.0 11.9
2015-Jun-28 02:00S 53°00' W 070°48'0 0.0 260 / 23976.3 4.5 11.9
2015-Jun-28 00:00S 53°00' W 070°48'0 0.0 140 / 31974.6 4.4 11.9
2015-Jun-27 22:00S 53°00' W 070°48'0 0.0 190 / 38974.3 3.7 11.9
2015-Jun-27 20:00S 53°00' W 070°48'0 0.0 140 / 41974.1 4.4 11.9
2015-Jun-27 18:00S 53°00' W 070°48'0 0.0 180 / 43975.6 6.2 11.9
2015-Jun-27 16:00S 53°00' W 070°48'0 0.0 100 / 25983.3 6.3 11.9
2015-Jun-27 14:00S 53°00' W 070°48'0 0.0 320 / 18987.4 5.3 11.9
2015-Jun-27 12:00S 53°00' W 070°48'0 0.0 090 / 21989.8 5.4 11.9
2015-Jun-27 10:00S 53°00' W 070°48'0 0.0 150 / 25991.8 5.1 11.9
2015-Jun-27 08:00S 53°00' W 070°48'0 0.0 220 / 23993.9 5.5 11.9
2015-Jun-27 02:00S 53°00' W 070°48'0 0.0 010 / 151000.5 3.5 11.9
2015-Jun-27 00:00S 53°00' W 070°48'0 0.0 150 / 241004.5 5.5 11.9
2015-Jun-26 22:00S 53°00' W 070°48'0 0.0 210 / 181004.4 5.0 11.9
2015-Jun-26 20:00S 53°00' W 070°48'0 0.0 220 / 91006.1 4.4 11.9
2015-Jun-26 18:00S 53°00' W 070°48'0 0.0 230 / 61006.5 5.0 11.9
2015-Jun-26 16:00S 53°00' W 070°48'0 0.0 240 / 201005.1 4.4 11.9
2015-Jun-26 14:00S 53°00' W 070°48'0 0.0 030 / 31005.5 3.7 11.9
2015-Jun-26 12:00S 53°00' W 070°48'0 0.0 350 / 81004.3 3.9 11.9
2015-Jun-26 04:00S 53°00' W 070°48'   160 / 71001.3 4.8 11.9
Track history (hours):
 
Tides and Currents Weather Stations Pressure Air Temp Water Temp Dewpoint Dewpoint Depression Visibility Wind Speed Wind Dir Waves Ship Positions

Oceanographic research ship Nathaniel B. Palmer (USA)

Contact: Ethan Norris, ethan.norris.contractor@usap.gov

Detailed information on ship capabilities available from University of Delaware's Ocean Information Center and ARCUS's ALIAS (Arctic Logistics Information and Support) project.

Owner: OFFSHORE SERVICE VESSELS, GALLIANO, LA. More information available from US FCC via Universal Licensing System and Coast Guard Vessel Documentation Center.

Last reported at 2015-Jul-06 04:00 UTC. Time now 2015-Jul-06 04:53 UTC.
Position S 53°00' W 070°48'.

Type: Other ship. MMSI: 366610000.

Wind from 260 at 10 knots

Barometer 1004.4 mb
Air temperature 1.4 ° C
Water temperature 11.9 ° C

Date/timePositionNaut miles runAvg speedWind from/ knotsBaromVisibWave heightAir tempDewpointWater temp
2015-Jul-06 04:00S 53°00' W 070°48'0 0.0 260 / 101004.4 1.4 11.9
2015-Jul-06 02:00S 53°00' W 070°48'0 0.0 310 / 111003.5 1.9 11.9
2015-Jul-06 00:00S 53°00' W 070°48'0 0.0 010 / 131002.2 2.6 11.9
2015-Jul-05 22:00S 53°00' W 070°48'0 0.0 300 / 121000.8 3.0 11.9
2015-Jul-05 20:00S 53°00' W 070°48'0 0.0 300 / 13999.8 3.3 11.9
2015-Jul-05 18:00S 53°00' W 070°48'0 0.0 320 / 13998.8 3.2 11.9
2015-Jul-05 16:00S 53°00' W 070°48'0 0.0 300 / 12998.9 2.3 11.9
2015-Jul-05 12:00S 53°00' W 070°48'0 0.0 020 / 16998.1 1.7 11.9
2015-Jul-05 10:00S 53°00' W 070°48'0 0.0 310 / 18998.0 2.0 11.9
2015-Jul-05 08:00S 53°00' W 070°48'0 0.0 230 / 18998.2 1.9 11.9
2015-Jul-05 04:00S 53°00' W 070°48'0 0.0 230 / 81000.2 3.0 11.9
2015-Jul-05 02:00S 53°00' W 070°48'0 0.0 310 / 111001.3 3.1 11.9
2015-Jul-05 00:00S 53°00' W 070°48'0 0.0 010 / 131002.1 3.5 11.9
2015-Jul-04 22:00S 53°00' W 070°48'0 0.0 120 / 151002.6 3.2 11.9
2015-Jul-04 20:00S 53°00' W 070°48'0 0.0 270 / 31003.0 3.6 11.9
2015-Jul-04 18:00S 53°00' W 070°48'0 0.0 300 / 51003.6 3.4 11.9
2015-Jul-04 16:00S 53°00' W 070°48'0 0.0 180 / 51004.4 4.0 11.9
2015-Jul-04 14:00S 53°00' W 070°48'0 0.0 220 / 31004.9 3.4 11.9
2015-Jul-04 12:00S 53°00' W 070°48'0 0.0 270 / 51005.2 2.7 11.9
2015-Jul-04 10:00S 53°00' W 070°48'0 0.0 350 / 31005.5 3.4 11.9
2015-Jul-04 08:00S 53°00' W 070°48'0 0.0 350 / 81005.9 3.7 11.9
2015-Jul-04 04:00S 53°00' W 070°48'0 0.0 040 / 111007.3 4.7 11.9
2015-Jul-04 02:00S 53°00' W 070°48'0 0.0 280 / 71008.6 5.1 11.9
2015-Jul-04 00:00S 53°00' W 070°48'0 0.0 280 / 91009.3 5.2 11.9
2015-Jul-03 20:00S 53°00' W 070°48'0 0.0 240 / 51009.9 5.6 11.9
2015-Jul-03 18:00S 53°00' W 070°48'0 0.0 030 / 81010.6 6.2 11.9
2015-Jul-03 16:00S 53°00' W 070°48'0 0.0 050 / 101011.3 5.3 11.9
2015-Jul-03 14:00S 53°00' W 070°48'0 0.0 250 / 161011.0 5.2 11.9
2015-Jul-03 12:00S 53°00' W 070°48'0 0.0 120 / 51011.7 5.0 11.9
2015-Jul-03 10:00S 53°00' W 070°48'0 0.0 280 / 41011.6 5.0 11.9
2015-Jul-03 08:00S 53°00' W 070°48'0 0.0 180 / 41011.4 5.1 11.9
2015-Jul-03 00:00S 53°00' W 070°48'0 0.0 170 / 171009.0 5.1 11.9
2015-Jul-02 22:00S 53°00' W 070°48'0 0.0 120 / 231007.9 4.7 11.9
2015-Jul-02 20:00S 53°00' W 070°48'0 0.0 210 / 301005.8 5.0 11.9
2015-Jul-02 18:00S 53°00' W 070°48'0 0.0 150 / 281005.9 5.0 11.9
2015-Jul-02 16:00S 53°00' W 070°48'0 0.0 190 / 241007.2 5.2 11.9
2015-Jul-02 14:00S 53°00' W 070°48'0 0.0 230 / 181008.1 5.2 11.9
2015-Jul-02 12:00S 53°00' W 070°48'0 0.0 230 / 21008.2 3.6 11.9
2015-Jul-02 10:00S 53°00' W 070°48'0 0.0 140 / 211007.8 3.1 11.9
2015-Jul-02 08:00S 53°00' W 070°48'0 0.0 240 / 191008.9 3.8 11.9
2015-Jul-02 04:00S 53°00' W 070°48'0 0.0 220 / 41011.5 4.0 11.9
2015-Jul-02 00:00S 53°00' W 070°48'0 0.0 230 / 61013.4 3.5 11.9
2015-Jul-01 22:00S 53°00' W 070°48'0 0.0 130 / 11013.8 3.5 11.9
2015-Jul-01 20:00S 53°00' W 070°48'0 0.0 240 / 71013.6 3.4 11.9
2015-Jul-01 18:00S 53°00' W 070°48'0 0.0 150 / 71013.5 3.7 11.9
2015-Jul-01 16:00S 53°00' W 070°48'0 0.0 260 / 71014.4 3.3 11.9
2015-Jul-01 14:00S 53°00' W 070°48'0 0.0 280 / 41014.2 2.3 11.9
2015-Jul-01 12:00S 53°00' W 070°48'0 0.0 140 / 81013.3 1.9 11.9
2015-Jul-01 10:00S 53°00' W 070°48'0 0.0 240 / 121012.3 3.4 11.9
2015-Jul-01 08:00S 53°00' W 070°48'0 0.0 180 / 111011.6 3.1 11.9
2015-Jul-01 04:00S 53°00' W 070°48'0 0.0 100 / 91010.2 2.8 11.9
2015-Jul-01 02:00S 53°00' W 070°48'0 0.0 100 / 61010.3 1.4 11.9
2015-Jul-01 00:00S 53°00' W 070°48'0 0.0 080 / 121009.5 3.0 11.9
2015-Jun-30 22:00S 53°00' W 070°48'0 0.0 090 / 221007.1 3.1 11.9
2015-Jun-30 20:00S 53°00' W 070°48'0 0.0 150 / 171005.1 2.7 11.9
2015-Jun-30 18:00S 53°00' W 070°48'0 0.0 170 / 141004.6 2.8 11.9
2015-Jun-30 16:00S 53°00' W 070°48'0 0.0 210 / 131004.8 2.7 11.9
2015-Jun-30 12:00S 53°00' W 070°48'0 0.0 120 / 181002.2 1.9 11.9
2015-Jun-30 10:00S 53°00' W 070°48'0 0.0 230 / 151001.8 1.9 11.9
2015-Jun-30 08:00S 53°00' W 070°48'0 0.0 150 / 26999.9 2.2 11.9
2015-Jun-30 04:00S 53°00' W 070°48'0 0.0 120 / 241000.1 1.6 11.9
2015-Jun-30 02:00S 53°00' W 070°48'0 0.0 110 / 221000.7 1.5 11.9
2015-Jun-30 00:00S 53°00' W 070°48'0 0.0 220 / 111001.8 0.8 11.9
2015-Jun-29 22:00S 53°00' W 070°48'0 0.0 100 / 14999.9 1.7 11.9
2015-Jun-29 20:00S 53°00' W 070°48'0 0.0 120 / 19997.7 2.1 11.9
2015-Jun-29 18:00S 53°00' W 070°48'0 0.0 160 / 14997.5 2.3 11.9
2015-Jun-29 16:00S 53°00' W 070°48'0 0.0 020 / 21996.2 1.9 11.9
2015-Jun-29 14:00S 53°00' W 070°48'0 0.0 190 / 15995.7 0.9 11.9
2015-Jun-29 12:00S 53°00' W 070°48'0 0.0 130 / 15994.1 1.5 11.9
2015-Jun-29 10:00S 53°00' W 070°48'0 0.0 230 / 20990.5 1.5 11.9
2015-Jun-29 08:00S 53°00' W 070°48'0 0.0 150 / 14989.9 1.8 11.9
2015-Jun-29 04:00S 53°00' W 070°48'0 0.0 120 / 15986.4 1.6 11.9
2015-Jun-29 02:00S 53°00' W 070°48'0 0.0 360 / 23984.4 2.0 11.9
2015-Jun-29 00:00S 53°00' W 070°48'0 0.0 210 / 20983.9 2.3 11.9
2015-Jun-28 22:00S 53°00' W 070°48'0 0.0 100 / 24982.4 2.3 11.9
2015-Jun-28 20:00S 53°00' W 070°48'0 0.0 210 / 19982.0 2.8 11.9
2015-Jun-28 18:00S 53°00' W 070°48'0 0.0 040 / 29980.7 3.0 11.9
2015-Jun-28 16:00S 53°00' W 070°48'0 0.0 140 / 25981.3 2.7 11.9
2015-Jun-28 12:00S 53°00' W 070°48'0 0.0 170 / 10981.4 1.5 11.9
2015-Jun-28 08:00S 53°00' W 070°48'0 0.0 180 / 13978.2 4.0 11.9
2015-Jun-28 04:00S 53°00' W 070°48'0 0.0 130 / 10978.1 5.0 11.9
2015-Jun-28 02:00S 53°00' W 070°48'0 0.0 260 / 23976.3 4.5 11.9
2015-Jun-28 00:00S 53°00' W 070°48'0 0.0 140 / 31974.6 4.4 11.9
2015-Jun-27 22:00S 53°00' W 070°48'0 0.0 190 / 38974.3 3.7 11.9
2015-Jun-27 20:00S 53°00' W 070°48'0 0.0 140 / 41974.1 4.4 11.9
2015-Jun-27 18:00S 53°00' W 070°48'0 0.0 180 / 43975.6 6.2 11.9
2015-Jun-27 16:00S 53°00' W 070°48'0 0.0 100 / 25983.3 6.3 11.9
2015-Jun-27 14:00S 53°00' W 070°48'0 0.0 320 / 18987.4 5.3 11.9
2015-Jun-27 12:00S 53°00' W 070°48'0 0.0 090 / 21989.8 5.4 11.9
2015-Jun-27 10:00S 53°00' W 070°48'0 0.0 150 / 25991.8 5.1 11.9
2015-Jun-27 08:00S 53°00' W 070°48'0 0.0 220 / 23993.9 5.5 11.9
2015-Jun-27 02:00S 53°00' W 070°48'0 0.0 010 / 151000.5 3.5 11.9
2015-Jun-27 00:00S 53°00' W 070°48'0 0.0 150 / 241004.5 5.5 11.9
2015-Jun-26 22:00S 53°00' W 070°48'0 0.0 210 / 181004.4 5.0 11.9
2015-Jun-26 20:00S 53°00' W 070°48'0 0.0 220 / 91006.1 4.4 11.9
2015-Jun-26 18:00S 53°00' W 070°48'0 0.0 230 / 61006.5 5.0 11.9
2015-Jun-26 16:00S 53°00' W 070°48'0 0.0 240 / 201005.1 4.4 11.9
2015-Jun-26 14:00S 53°00' W 070°48'0 0.0 030 / 31005.5 3.7 11.9
2015-Jun-26 12:00S 53°00' W 070°48'0 0.0 350 / 81004.3 3.9 11.9
2015-Jun-26 04:00S 53°00' W 070°48'   160 / 71001.3 4.8 11.9

Dump ship's entire track history